Time;durP1;ratioP1;P1;durP2;ratioP2;P2;SDS_P1;SDS_P2;PMS_P1;PMS_P2;Temp;Humidity;BMP_temperature;BMP_pressure;BME280_temperature;BME280_humidity;BME280_pressure;Samples;Min_cycle;Max_cycle;Signal;HPM_P1;HPM_P2
2023/06/15 00:02:11;;;;;;;4.30;2.20;;;;;;;;;;4938397;29;20047;-89
2023/06/15 00:04:56;;;;;;;5.05;2.03;;;;;;;;;;4923723;29;20060;-89
2023/06/15 00:07:40;;;;;;;6.72;2.47;;;;;;;;;;4923550;29;20043;-90
2023/06/15 00:10:25;;;;;;;4.65;2.60;;;;;;;;;;4938277;29;20464;-89
2023/06/15 00:13:10;;;;;;;5.45;2.70;;;;;;;;;;4923923;29;20091;-88
2023/06/15 00:15:55;;;;;;;5.63;2.60;;;;;;;;;;4938217;29;20079;-89
2023/06/15 00:18:40;;;;;;;7.72;2.70;;;;;;;;;;4936800;29;20047;-90
2023/06/15 00:21:26;;;;;;;7.60;2.17;;;;;;;;;;4938055;29;20491;-89
2023/06/15 00:24:10;;;;;;;5.65;2.47;;;;;;;;;;4936843;29;20058;-89
2023/06/15 00:26:55;;;;;;;4.03;2.42;;;;;;;;;;4938012;29;20082;-88
2023/06/15 00:29:40;;;;;;;8.18;2.42;;;;;;;;;;4937270;29;20050;-88
2023/06/15 00:32:25;;;;;;;5.25;2.13;;;;;;;;;;4938043;29;20042;-90
2023/06/15 00:35:10;;;;;;;9.85;3.47;;;;;;;;;;4937881;29;20055;-89
2023/06/15 00:37:54;;;;;;;7.53;2.80;;;;;;;;;;4937851;29;20590;-88
2023/06/15 00:40:39;;;;;;;5.97;2.83;;;;;;;;;;4937531;29;20131;-89
2023/06/15 00:43:24;;;;;;;4.82;2.38;;;;;;;;;;4936731;29;20098;-88
2023/06/15 00:46:08;;;;;;;8.38;2.67;;;;;;;;;;4923382;29;20050;-88
2023/06/15 00:48:53;;;;;;;5.68;2.50;;;;;;;;;;4937448;29;20042;-89
2023/06/15 00:51:41;;;;;;;5.65;2.80;;;;;;;;;;4923135;29;20098;-88
2023/06/15 00:54:26;;;;;;;4.18;2.35;;;;;;;;;;4936946;29;20539;-89
2023/06/15 00:57:12;;;;;;;6.70;2.90;;;;;;;;;;4938210;29;20039;-90
2023/06/15 00:59:57;;;;;;;5.25;2.78;;;;;;;;;;4938919;29;20113;-88
2023/06/15 01:02:42;;;;;;;9.45;3.15;;;;;;;;;;4926941;29;20105;-89
2023/06/15 01:05:27;;;;;;;10.82;2.50;;;;;;;;;;4936145;29;20042;-89
2023/06/15 01:08:13;;;;;;;6.30;3.15;;;;;;;;;;4937160;29;20067;-89
2023/06/15 01:10:58;;;;;;;3.83;2.22;;;;;;;;;;4922710;29;20095;-89
2023/06/15 01:13:46;;;;;;;5.05;2.72;;;;;;;;;;4908978;29;20103;-89
2023/06/15 01:16:38;;;;;;;4.38;2.53;;;;;;;;;;4936102;29;20047;-88
2023/06/15 01:19:34;;;;;;;4.32;2.30;;;;;;;;;;4936032;29;20043;-89
2023/06/15 01:22:24;;;;;;;6.80;2.88;;;;;;;;;;4936242;29;20046;-89
2023/06/15 01:25:12;;;;;;;6.68;2.88;;;;;;;;;;4937004;29;20067;-89
2023/06/15 01:27:58;;;;;;;6.82;3.33;;;;;;;;;;4936754;29;20289;-89
2023/06/15 01:30:48;;;;;;;5.13;2.75;;;;;;;;;;4936857;29;20058;-88
2023/06/15 01:33:33;;;;;;;6.05;2.88;;;;;;;;;;4937033;29;20035;-89
2023/06/15 01:36:18;;;;;;;4.57;2.65;;;;;;;;;;4935956;29;20135;-89
2023/06/15 01:39:03;;;;;;;8.73;2.95;;;;;;;;;;4936670;29;20103;-89
2023/06/15 01:41:48;;;;;;;8.88;3.20;;;;;;;;;;4935849;29;20042;-89
2023/06/15 01:44:33;;;;;;;7.50;3.03;;;;;;;;;;4922391;29;20087;-89
2023/06/15 01:47:18;;;;;;;7.00;2.88;;;;;;;;;;4936532;29;20127;-90
2023/06/15 01:50:03;;;;;;;5.63;2.97;;;;;;;;;;4936235;29;20496;-89
2023/06/15 01:52:48;;;;;;;4.85;2.63;;;;;;;;;;4936092;29;20623;-89
2023/06/15 01:55:32;;;;;;;7.82;3.28;;;;;;;;;;4936534;29;20122;-89
2023/06/15 01:58:17;;;;;;;5.18;3.28;;;;;;;;;;4921904;29;20066;-89
2023/06/15 02:01:02;;;;;;;6.72;3.00;;;;;;;;;;4935136;29;20042;-88
2023/06/15 02:03:46;;;;;;;6.30;3.40;;;;;;;;;;4935030;29;20107;-89
2023/06/15 02:06:31;;;;;;;5.13;3.40;;;;;;;;;;4936286;29;20095;-88
2023/06/15 02:09:16;;;;;;;8.75;3.40;;;;;;;;;;4936224;29;20054;-89
2023/06/15 02:12:00;;;;;;;9.50;3.75;;;;;;;;;;4934804;29;20483;-89
2023/06/15 02:14:47;;;;;;;7.63;3.78;;;;;;;;;;4935716;29;20047;-90
2023/06/15 02:17:33;;;;;;;22.23;4.75;;;;;;;;;;4936046;29;20039;-89
2023/06/15 02:20:18;;;;;;;8.05;4.43;;;;;;;;;;4935978;29;20555;-88
2023/06/15 02:23:02;;;;;;;8.80;4.40;;;;;;;;;;4935774;29;20114;-88
2023/06/15 02:25:47;;;;;;;8.43;3.50;;;;;;;;;;4921104;29;20091;-88
2023/06/15 02:28:31;;;;;;;7.07;3.83;;;;;;;;;;4934924;29;20038;-88
2023/06/15 02:31:16;;;;;;;6.78;3.65;;;;;;;;;;4934905;29;20038;-88
2023/06/15 02:34:01;;;;;;;12.23;3.88;;;;;;;;;;4934466;29;20055;-89
2023/06/15 02:36:46;;;;;;;6.22;3.05;;;;;;;;;;4935406;29;20087;-93
2023/06/15 02:39:30;;;;;;;10.35;3.92;;;;;;;;;;4935744;29;20495;-89
2023/06/15 02:42:15;;;;;;;6.10;3.22;;;;;;;;;;4921417;29;20456;-89
2023/06/15 02:45:00;;;;;;;8.15;3.63;;;;;;;;;;4909880;29;20055;-89
2023/06/15 02:47:45;;;;;;;6.60;4.15;;;;;;;;;;4905346;29;20040;-92
2023/06/15 02:50:30;;;;;;;7.15;3.50;;;;;;;;;;4883431;29;20545;-89
2023/06/15 02:53:15;;;;;;;6.55;3.67;;;;;;;;;;4897307;29;20063;-89
2023/06/15 02:56:02;;;;;;;6.18;3.78;;;;;;;;;;4896047;29;20051;-90
2023/06/15 02:58:56;;;;;;;7.80;4.15;;;;;;;;;;4896534;29;20495;-94
2023/06/15 03:01:42;;;;;;;8.00;4.72;;;;;;;;;;4896742;29;20501;-89
2023/06/15 03:04:27;;;;;;;13.60;4.78;;;;;;;;;;4896373;29;20557;-88
2023/06/15 03:07:16;;;;;;;9.13;4.38;;;;;;;;;;4897163;29;20048;-89
2023/06/15 03:10:01;;;;;;;7.57;4.55;;;;;;;;;;4895859;29;20131;-90
2023/06/15 03:12:45;;;;;;;6.55;3.78;;;;;;;;;;4882779;29;20138;-89
2023/06/15 03:15:30;;;;;;;5.60;3.35;;;;;;;;;;4897225;29;20092;-90
2023/06/15 03:18:15;;;;;;;11.07;4.65;;;;;;;;;;4883094;29;20071;-89
2023/06/15 03:20:59;;;;;;;8.45;4.55;;;;;;;;;;4897172;29;20047;-89
2023/06/15 03:23:44;;;;;;;10.02;4.50;;;;;;;;;;4897348;29;20092;-90
2023/06/15 03:26:29;;;;;;;9.95;4.55;;;;;;;;;;4896403;29;20076;-90
2023/06/15 03:29:14;;;;;;;7.75;4.60;;;;;;;;;;4896140;29;20104;-89
2023/06/15 03:31:59;;;;;;;8.68;4.10;;;;;;;;;;4882632;29;20176;-91
2023/06/15 03:34:46;;;;;;;7.53;4.35;;;;;;;;;;4896163;29;20069;-89
2023/06/15 03:37:31;;;;;;;9.77;4.47;;;;;;;;;;4896883;29;20043;-90
2023/06/15 03:40:16;;;;;;;9.13;4.60;;;;;;;;;;4896931;29;20052;-89
2023/06/15 03:43:00;;;;;;;10.85;4.30;;;;;;;;;;4902132;29;20580;-89
2023/06/15 03:45:45;;;;;;;11.52;5.45;;;;;;;;;;4915918;29;20405;-90
2023/06/15 03:48:30;;;;;;;8.63;4.78;;;;;;;;;;4901622;29;20047;-89
2023/06/15 03:51:14;;;;;;;9.27;4.88;;;;;;;;;;4901267;29;20051;-89
2023/06/15 03:53:59;;;;;;;9.85;5.05;;;;;;;;;;4915477;29;20552;-89
2023/06/15 03:56:44;;;;;;;8.02;4.72;;;;;;;;;;4901722;29;20071;-89
2023/06/15 03:59:28;;;;;;;10.05;4.57;;;;;;;;;;4916048;29;20519;-89
2023/06/15 04:02:13;;;;;;;6.93;4.57;;;;;;;;;;4915604;29;20111;-89
2023/06/15 04:04:58;;;;;;;8.93;4.45;;;;;;;;;;4915640;29;20451;-89
2023/06/15 04:07:43;;;;;;;7.85;4.72;;;;;;;;;;4919367;29;20060;-89
2023/06/15 04:10:28;;;;;;;9.65;4.53;;;;;;;;;;4891754;29;20087;-89
2023/06/15 04:13:13;;;;;;;8.05;4.80;;;;;;;;;;4918863;29;20062;-89
2023/06/15 04:15:57;;;;;;;12.23;4.38;;;;;;;;;;4919016;29;20111;-91
2023/06/15 04:18:42;;;;;;;8.50;4.28;;;;;;;;;;4919054;29;20074;-89
2023/06/15 04:21:26;;;;;;;7.53;4.38;;;;;;;;;;4904662;29;20047;-89
2023/06/15 04:24:11;;;;;;;8.88;5.07;;;;;;;;;;4904427;29;20079;-89
2023/06/15 04:26:57;;;;;;;7.03;4.38;;;;;;;;;;4904807;29;20500;-89
2023/06/15 04:29:45;;;;;;;10.93;4.80;;;;;;;;;;4904664;29;20504;-89
2023/06/15 04:32:30;;;;;;;7.35;4.50;;;;;;;;;;4918091;29;20043;-89
2023/06/15 04:35:17;;;;;;;10.05;4.45;;;;;;;;;;4918300;29;20445;-90
2023/06/15 04:38:05;;;;;;;11.80;4.80;;;;;;;;;;4918170;29;20043;-91
2023/06/15 04:40:49;;;;;;;8.10;4.90;;;;;;;;;;4917705;29;20518;-90
2023/06/15 04:43:35;;;;;;;9.75;4.93;;;;;;;;;;4928653;29;20520;-89
2023/06/15 04:46:20;;;;;;;7.57;4.00;;;;;;;;;;4937358;29;20571;-90
2023/06/15 04:49:05;;;;;;;11.48;4.47;;;;;;;;;;4909374;29;20047;-90
2023/06/15 04:51:50;;;;;;;10.10;5.25;;;;;;;;;;4936608;29;20043;-89
2023/06/15 04:54:34;;;;;;;9.60;4.72;;;;;;;;;;4923223;29;20082;-90
2023/06/15 04:57:19;;;;;;;8.40;4.15;;;;;;;;;;4937242;29;20600;-91
2023/06/15 05:00:06;;;;;;;8.27;4.20;;;;;;;;;;4937025;29;20171;-89
2023/06/15 05:02:51;;;;;;;8.13;5.22;;;;;;;;;;4937208;29;20047;-89
2023/06/15 05:05:36;;;;;;;8.90;3.88;;;;;;;;;;4937397;29;20564;-89
2023/06/15 05:08:21;;;;;;;7.32;3.80;;;;;;;;;;4911103;29;20046;-89
2023/06/15 05:11:06;;;;;;;9.00;3.60;;;;;;;;;;4942364;29;20038;-91
2023/06/15 05:13:51;;;;;;;8.27;3.78;;;;;;;;;;4942695;29;20072;-90
2023/06/15 05:16:35;;;;;;;7.63;3.60;;;;;;;;;;4908388;29;20043;-90
2023/06/15 05:19:20;;;;;;;6.80;3.55;;;;;;;;;;4922166;29;20515;-90
2023/06/15 05:22:06;;;;;;;5.50;3.78;;;;;;;;;;4936649;29;20046;-91
2023/06/15 05:24:51;;;;;;;7.38;3.38;;;;;;;;;;4936841;29;20070;-92
2023/06/15 05:27:36;;;;;;;6.85;3.15;;;;;;;;;;4935830;29;20516;-91
2023/06/15 05:30:22;;;;;;;10.23;3.10;;;;;;;;;;4935690;29;20074;-92
2023/06/15 05:33:07;;;;;;;9.68;3.50;;;;;;;;;;4908883;29;20512;-93
2023/06/15 05:35:51;;;;;;;5.63;2.65;;;;;;;;;;4936658;29;20050;-91
2023/06/15 05:38:36;;;;;;;5.57;2.92;;;;;;;;;;4909165;29;20091;-91
2023/06/15 05:41:20;;;;;;;11.27;4.05;;;;;;;;;;4936202;29;20042;-91
2023/06/15 05:44:05;;;;;;;6.28;3.00;;;;;;;;;;4935792;29;20059;-94
2023/06/15 05:46:50;;;;;;;10.18;3.63;;;;;;;;;;4936151;29;20055;-95
2023/06/15 05:49:35;;;;;;;9.48;2.65;;;;;;;;;;4923268;29;20043;-94
2023/06/15 05:52:20;;;;;;;4.43;2.65;;;;;;;;;;4922251;29;20095;-93
2023/06/15 05:55:04;;;;;;;6.97;2.70;;;;;;;;;;4936504;29;20078;-93
2023/06/15 05:57:49;;;;;;;10.68;4.32;;;;;;;;;;4922543;29;20511;-89
2023/06/15 06:00:33;;;;;;;6.68;2.80;;;;;;;;;;4935667;29;20122;-92
2023/06/15 06:03:18;;;;;;;7.82;2.65;;;;;;;;;;4935516;29;20593;-89
2023/06/15 06:06:03;;;;;;;4.85;2.42;;;;;;;;;;4936066;29;20412;-89
2023/06/15 06:08:47;;;;;;;6.97;3.15;;;;;;;;;;4908237;29;20076;-90
2023/06/15 06:11:32;;;;;;;7.00;2.33;;;;;;;;;;4935615;29;20074;-91
2023/06/15 06:14:17;;;;;;;12.35;2.80;;;;;;;;;;4934718;29;20102;-90
2023/06/15 06:17:01;;;;;;;5.45;2.45;;;;;;;;;;4934598;29;20103;-89
2023/06/15 06:19:48;;;;;;;7.80;2.08;;;;;;;;;;4908070;29;20411;-90
2023/06/15 06:22:32;;;;;;;4.50;2.50;;;;;;;;;;4935490;29;20042;-89
2023/06/15 06:25:17;;;;;;;3.85;2.10;;;;;;;;;;4934302;29;20075;-89
2023/06/15 06:28:01;;;;;;;3.78;1.90;;;;;;;;;;4935237;29;20544;-88
2023/06/15 06:30:46;;;;;;;9.90;2.60;;;;;;;;;;4935561;29;20098;-89
2023/06/15 06:33:30;;;;;;;5.72;2.38;;;;;;;;;;4934165;29;20122;-89
2023/06/15 06:36:15;;;;;;;5.88;2.47;;;;;;;;;;4920691;29;20087;-93
2023/06/15 06:39:00;;;;;;;9.48;2.33;;;;;;;;;;4920651;29;20102;-91
2023/06/15 06:41:45;;;;;;;3.80;2.50;;;;;;;;;;4935315;29;20565;-90
2023/06/15 06:44:29;;;;;;;4.30;2.22;;;;;;;;;;4934946;29;20142;-89
2023/06/15 06:47:14;;;;;;;5.00;2.22;;;;;;;;;;4935240;29;20071;-90
2023/06/15 06:50:01;;;;;;;5.60;2.47;;;;;;;;;;4935286;29;20090;-89
2023/06/15 06:52:46;;;;;;;6.53;2.22;;;;;;;;;;4934366;29;20072;-88
2023/06/15 06:55:31;;;;;;;5.97;2.20;;;;;;;;;;4920528;29;20046;-89
2023/06/15 06:58:16;;;;;;;4.95;2.30;;;;;;;;;;4921047;29;20087;-90
2023/06/15 07:01:00;;;;;;;8.85;2.53;;;;;;;;;;4935121;29;20516;-89
2023/06/15 07:03:45;;;;;;;4.72;2.40;;;;;;;;;;4934920;29;20400;-88
2023/06/15 07:06:30;;;;;;;5.57;2.47;;;;;;;;;;4934666;29;20051;-88
2023/06/15 07:09:14;;;;;;;4.55;2.22;;;;;;;;;;4935062;29;20051;-89
2023/06/15 07:12:00;;;;;;;9.35;2.85;;;;;;;;;;4934898;29;20062;-90
2023/06/15 07:14:45;;;;;;;6.15;1.95;;;;;;;;;;4935140;29;20135;-88
2023/06/15 07:17:30;;;;;;;6.43;2.33;;;;;;;;;;4921348;29;20482;-87
2023/06/15 07:20:14;;;;;;;5.97;2.30;;;;;;;;;;4921296;29;20046;-84
2023/06/15 07:22:58;;;;;;;9.38;2.13;;;;;;;;;;4934037;29;20050;-89
2023/06/15 07:25:43;;;;;;;4.43;2.47;;;;;;;;;;4934811;29;20082;-90
2023/06/15 07:28:28;;;;;;;5.68;2.83;;;;;;;;;;4934767;29;20542;-89
2023/06/15 07:31:13;;;;;;;8.45;2.22;;;;;;;;;;4934239;29;20516;-91
2023/06/15 07:33:57;;;;;;;4.15;2.53;;;;;;;;;;4934287;29;20434;-90
2023/06/15 07:36:42;;;;;;;6.25;2.28;;;;;;;;;;4933660;29;20066;-90
2023/06/15 07:39:26;;;;;;;6.88;2.55;;;;;;;;;;4934902;29;20038;-89
2023/06/15 07:42:11;;;;;;;5.47;2.25;;;;;;;;;;4911129;29;20062;-89
2023/06/15 07:44:56;;;;;;;8.95;3.15;;;;;;;;;;4924308;29;20136;-88
2023/06/15 07:47:42;;;;;;;4.45;2.13;;;;;;;;;;4937900;29;20045;-88
2023/06/15 07:50:28;;;;;;;6.97;2.75;;;;;;;;;;4943212;29;20035;-90
2023/06/15 07:53:13;;;;;;;7.55;2.67;;;;;;;;;;4945994;29;20571;-89
2023/06/15 07:55:58;;;;;;;6.07;2.30;;;;;;;;;;4943793;29;20084;-89
2023/06/15 07:58:43;;;;;;;4.30;2.28;;;;;;;;;;4914311;29;20095;-90
2023/06/15 08:01:27;;;;;;;7.15;2.50;;;;;;;;;;4944070;29;20118;-90
2023/06/15 08:04:14;;;;;;;11.52;2.42;;;;;;;;;;4943133;29;20087;-89
2023/06/15 08:06:58;;;;;;;6.82;2.33;;;;;;;;;;4940525;29;20051;-89
2023/06/15 08:09:43;;;;;;;4.53;2.00;;;;;;;;;;4925122;29;20492;-88
2023/06/15 08:12:27;;;;;;;3.53;2.22;;;;;;;;;;4938236;29;20043;-93
2023/06/15 08:15:12;;;;;;;8.90;2.20;;;;;;;;;;4942338;29;20413;-90
2023/06/15 08:17:56;;;;;;;6.40;2.58;;;;;;;;;;4941722;29;20046;-89
2023/06/15 08:20:41;;;;;;;4.15;2.00;;;;;;;;;;4938464;29;20056;-89
2023/06/15 08:23:25;;;;;;;5.68;2.05;;;;;;;;;;4937144;29;20071;-89
2023/06/15 08:26:10;;;;;;;4.75;2.60;;;;;;;;;;4923698;29;20551;-91
2023/06/15 08:28:55;;;;;;;5.05;2.40;;;;;;;;;;4939074;29;20099;-93
2023/06/15 08:31:40;;;;;;;3.95;2.33;;;;;;;;;;4936965;29;20043;-88
2023/06/15 08:34:25;;;;;;;4.40;2.08;;;;;;;;;;4935752;29;20047;-88
2023/06/15 08:37:11;;;;;;;10.40;2.20;;;;;;;;;;4937580;29;20047;-88
2023/06/15 08:39:56;;;;;;;6.47;2.30;;;;;;;;;;4910283;29;20401;-91
2023/06/15 08:42:41;;;;;;;3.95;2.03;;;;;;;;;;4936193;29;20095;-91
2023/06/15 08:45:38;;;;;;;4.65;2.00;;;26.20;54.70;;;;;;4937619;29;20055;-91
2023/06/15 08:48:24;;;;;;;7.00;2.10;;;;;;;;;;4923182;29;20479;-88
2023/06/15 08:51:12;;;;;;;4.15;2.30;;;;;;;;;;4936390;29;20086;-87
2023/06/15 08:53:57;;;;;;;4.65;2.15;;;;;;;;;;4937242;29;20038;-88
2023/06/15 08:56:41;;;;;;;5.00;1.83;;;;;;;;;;4937085;29;20046;-92
2023/06/15 08:59:26;;;;;;;5.47;2.22;;;;;;;;;;4936418;29;20119;-91
2023/06/15 09:02:15;;;;;;;4.00;2.38;;;;;;;;;;4935627;29;20050;-91
2023/06/15 09:05:00;;;;;;;4.40;2.40;;;;;;;;;;4936909;29;20130;-91
2023/06/15 09:07:45;;;;;;;5.05;2.17;;;;;;;;;;4936429;29;20090;-90
2023/06/15 09:10:31;;;;;;;5.32;2.20;;;;;;;;;;4936852;29;20039;-90
2023/06/15 09:13:16;;;;;;;4.78;2.08;;;;;;;;;;4936765;29;20086;-89
2023/06/15 09:16:02;;;;;;;3.58;1.88;;;;;;;;;;4935474;29;20050;-90
2023/06/15 09:18:51;;;;;;;5.53;2.30;;;;;;;;;;4935935;29;20066;-91
2023/06/15 09:21:39;;;;;;;6.20;2.05;;;;;;;;;;4934283;29;20200;-90
2023/06/15 09:24:24;;;;;;;5.72;2.50;;;;;;;;;;4935935;29;20050;-89
2023/06/15 09:27:15;;;;;;;6.07;2.30;;;;;;;;;;4934913;29;20557;-90
2023/06/15 09:30:06;;;;;;;4.15;1.90;;;;;;;;;;4935858;29;20043;-90
2023/06/15 09:32:51;;;;;;;4.18;2.10;;;;;;;;;;4934712;29;20046;-91
2023/06/15 09:35:36;;;;;;;4.80;2.30;;;;;;;;;;4935107;29;20126;-90
2023/06/15 09:38:21;;;;;;;5.20;2.25;;;;;;;;;;4921771;29;20042;-91
2023/06/15 09:41:06;;;;;;;6.97;2.20;;;;;;;;;;4921030;29;20124;-91
2023/06/15 09:43:51;;;;;;;5.43;2.20;;;;;;;;;;4936070;29;20151;-91
2023/06/15 09:46:38;;;;;;;3.60;1.98;;;;;;;;;;4921605;29;20055;-92
2023/06/15 09:49:25;;;;;;;6.53;2.10;;;;;;;;;;4921284;29;20050;-90
2023/06/15 09:52:12;;;;;;;6.07;2.55;;;;;;;;;;4936107;29;20051;-88
2023/06/15 09:54:56;;;;;;;3.45;2.25;;;;;;;;;;4934798;29;20131;-92
2023/06/15 09:57:41;;;;;;;4.70;2.20;;;;;;;;;;4921315;29;20154;-90
2023/06/15 10:00:26;;;;;;;6.68;2.15;;;;;;;;;;4934965;29;20046;-91
2023/06/15 10:03:14;;;;;;;5.75;2.28;;;27.40;48.20;;;;;;4907848;29;20123;-92
2023/06/15 10:06:02;;;;;;;5.75;2.53;;;;;;;;;;4935501;29;20042;-90
2023/06/15 10:08:51;;;;;;;5.20;2.10;;;;;;;;;;4934740;29;20063;-91
2023/06/15 10:11:40;;;;;;;4.78;2.30;;;;;;;;;;4935861;29;20042;-89
2023/06/15 10:14:47;;;;;;;3.65;1.88;;;;;;;;;;4934649;29;20412;-91
2023/06/15 10:17:35;;;;;;;3.75;2.10;;;;;;;;;;4935675;29;20099;-90
2023/06/15 10:20:23;;;;;;;4.43;2.40;;;;;;;;;;4921697;29;20134;-90
2023/06/15 10:23:10;;;;;;;4.80;2.00;;;;;;;;;;4934592;29;20178;-90
2023/06/15 10:25:57;;;;;;;5.15;1.98;;;;;;;;;;4935215;29;20050;-91
2023/06/15 10:28:44;;;;;;;5.00;2.03;;;;;;;;;;4934163;29;20587;-89
2023/06/15 10:31:38;;;;;;;4.07;2.20;;;;;;;;;;4935498;29;20468;-89
2023/06/15 10:34:27;;;;;;;5.13;2.17;;;;;;;;;;4935559;29;20134;-90
2023/06/15 10:37:17;;;;;;;4.45;2.28;;;;;;;;;;4935751;29;20042;-92
2023/06/15 10:40:10;;;;;;;5.63;2.03;;;;;;;;;;4935067;29;20038;-89
2023/06/15 10:42:57;;;;;;;7.57;2.22;;;28.50;44.20;;;;;;4935587;29;20107;-90
2023/06/15 10:45:41;;;;;;;4.28;2.03;;;;;;;;;;4935251;29;20082;-90
2023/06/15 10:48:27;;;;;;;5.45;2.20;;;;;;;;;;4935460;29;20449;-90
2023/06/15 10:51:14;;;;;;;5.18;2.10;;;;;;;;;;4935847;29;20091;-88
2023/06/15 10:54:02;;;;;;;7.50;2.03;;;;;;;;;;4935202;29;20042;-89
2023/06/15 10:56:51;;;;;;;5.85;1.90;;;;;;;;;;4934884;29;20034;-89
2023/06/15 10:59:41;;;;;;;5.03;1.90;;;;;;;;;;4907534;29;20141;-85
2023/06/15 11:02:31;;;;;;;3.85;1.95;;;;;;;;;;4934246;29;20115;-87
2023/06/15 11:05:19;;;;;;;4.70;2.08;;;;;;;;;;4933973;29;20126;-88
2023/06/15 11:08:15;;;;;;;10.32;2.50;;;;;;;;;;4933786;29;20163;-87
2023/06/15 11:11:00;;;;;;;3.38;2.05;;;;;;;;;;4933872;29;20083;-89
2023/06/15 11:14:05;;;;;;;3.47;2.00;;;;;;;;;;4933340;29;20548;-91
2023/06/15 11:17:02;;;;;;;3.97;2.47;;;;;;;;;;4937392;29;20090;-88
2023/06/15 11:19:47;;;;;;;7.35;2.20;;;;;;;;;;4937609;29;20038;-90
2023/06/15 11:22:31;;;;;;;2.95;2.08;;;;;;;;;;4937876;29;20038;-89
2023/06/15 11:25:16;;;;;;;3.80;2.10;;;;;;;;;;4937937;29;20046;-89
2023/06/15 11:28:02;;;;;;;4.40;2.50;;;;;;;;;;4938403;29;20054;-89
2023/06/15 11:30:47;;;;;;;5.97;2.17;;;;;;;;;;4937863;29;20075;-91
2023/06/15 11:33:40;;;;;;;6.00;2.17;;;28.90;39.90;;;;;;4924242;29;20038;-88
2023/06/15 11:36:24;;;;;;;5.33;2.40;;;;;;;;;;4938740;29;20105;-88
2023/06/15 11:39:22;;;;;;;5.70;2.03;;;;;;;;;;4937254;29;20634;-87
2023/06/15 11:42:09;;;;;;;4.53;2.10;;;;;;;;;;4938331;29;20040;-89
2023/06/15 11:44:55;;;;;;;3.95;2.10;;;;;;;;;;4936835;29;20059;-89
2023/06/15 11:47:41;;;;;;;5.22;1.90;;;;;;;;;;4937384;29;20046;-88
2023/06/15 11:50:26;;;;;;;2.67;1.75;;;;;;;;;;4937384;29;20042;-88
2023/06/15 11:53:15;;;;;;;6.10;2.13;;;;;;;;;;4937964;29;20184;-89
2023/06/15 11:56:01;;;;;;;6.38;2.00;;;29.00;38.80;;;;;;4937041;29;20046;-88
2023/06/15 11:58:47;;;;;;;4.20;2.30;;;;;;;;;;4938370;29;20042;-89
2023/06/15 12:01:32;;;;;;;4.95;1.95;;;;;;;;;;4938332;29;20449;-88
2023/06/15 12:04:16;;;;;;;3.58;1.88;;;;;;;;;;4910377;29;20527;-90
2023/06/15 12:07:01;;;;;;;5.82;2.22;;;;;;;;;;4937807;29;20087;-88
2023/06/15 12:09:46;;;;;;;5.35;1.92;;;;;;;;;;4937683;29;20552;-90
2023/06/15 12:12:31;;;;;;;6.68;2.13;;;;;;;;;;4937715;29;20063;-89
2023/06/15 12:15:20;;;;;;;7.57;2.40;;;;;;;;;;4937581;29;20046;-89
2023/06/15 12:18:07;;;;;;;4.75;2.20;;;;;;;;;;4937498;29;20042;-87
2023/06/15 12:20:52;;;;;;;4.25;2.20;;;;;;;;;;4936925;29;20054;-89
2023/06/15 12:23:36;;;;;;;3.88;1.70;;;;;;;;;;4937925;29;20043;-89
2023/06/15 12:26:21;;;;;;;5.30;2.30;;;;;;;;;;4936450;29;20046;-89
2023/06/15 12:29:25;;;;;;;5.93;2.03;;;;;;;;;;4937402;29;20047;-90
2023/06/15 12:32:10;;;;;;;5.32;2.10;;;;;;;;;;4937362;29;20146;-91
2023/06/15 12:34:55;;;;;;;3.55;2.10;;;;;;;;;;4937609;29;20098;-91
2023/06/15 12:37:41;;;;;;;4.25;2.20;;;;;;;;;;4936700;29;20039;-90
2023/06/15 12:40:26;;;;;;;7.20;2.50;;;;;;;;;;4936728;29;20433;-89
2023/06/15 12:43:11;;;;;;;5.82;1.98;;;;;;;;;;4937182;29;20066;-88
2023/06/15 12:45:56;;;;;;;5.82;1.98;;;;;;;;;;4936399;29;20106;-88
2023/06/15 12:48:43;;;;;;;5.20;1.98;;;;;;;;;;4937429;29;20083;-87
2023/06/15 12:51:28;;;;;;;3.45;2.15;;;;;;;;;;4936569;29;20214;-89
2023/06/15 12:54:12;;;;;;;6.15;2.30;;;;;;;;;;4937072;29;20046;-88
2023/06/15 12:56:57;;;;;;;4.55;2.10;;;;;;;;;;4923101;29;20059;-88
2023/06/15 12:59:42;;;;;;;4.78;2.10;;;;;;;;;;4923414;29;20091;-89
2023/06/15 13:02:27;;;;;;;4.47;2.03;;;;;;;;;;4937392;29;20072;-89
2023/06/15 13:05:11;;;;;;;3.72;2.33;;;;;;;;;;4935969;29;20054;-89
2023/06/15 13:07:56;;;;;;;5.45;2.30;;;;;;;;;;4937196;29;20038;-89
2023/06/15 13:10:41;;;;;;;4.40;2.03;;;;;;;;;;4935892;29;20050;-89
2023/06/15 13:13:26;;;;;;;4.65;2.60;;;;;;;;;;4936707;29;20054;-89
2023/06/15 13:16:11;;;;;;;8.50;2.25;;;;;;;;;;4908836;29;20452;-89
2023/06/15 13:18:55;;;;;;;2.70;1.80;;;;;;;;;;4922649;29;20404;-91
2023/06/15 13:21:40;;;;;;;4.53;2.17;;;;;;;;;;4936885;29;20559;-89
2023/06/15 13:24:25;;;;;;;5.20;2.22;;;;;;;;;;4936659;29;20090;-89
2023/06/15 13:27:11;;;;;;;5.05;2.17;;;;;;;;;;4922153;29;20115;-90
2023/06/15 13:29:55;;;;;;;4.65;2.28;;;;;;;;;;4937166;29;20573;-90
2023/06/15 13:32:42;;;;;;;6.20;2.38;;;;;;;;;;4922361;29;20086;-89
2023/06/15 13:35:27;;;;;;;5.32;2.30;;;;;;;;;;4936327;29;20042;-89
2023/06/15 13:38:12;;;;;;;4.78;2.38;;;;;;;;;;4935417;29;20078;-89
2023/06/15 13:40:58;;;;;;;7.55;2.53;;;;;;;;;;4935921;29;20102;-88
2023/06/15 13:43:43;;;;;;;9.00;2.47;;;;;;;;;;4936130;29;20082;-89
2023/06/15 13:46:30;;;;;;;7.13;2.47;;;;;;;;;;4935192;29;20110;-89
2023/06/15 13:49:14;;;;;;;6.32;2.42;;;;;;;;;;4935889;29;20108;-88
2023/06/15 13:51:59;;;;;;;4.85;2.30;;;;;;;;;;4922086;29;20051;-88
2023/06/15 13:54:44;;;;;;;5.15;2.15;;;;;;;;;;4936380;29;20042;-88
2023/06/15 13:57:28;;;;;;;3.85;2.40;;;;;;;;;;4935839;29;20050;-90
2023/06/15 14:00:13;;;;;;;4.20;2.38;;;;;;;;;;4935940;29;20095;-88
2023/06/15 14:03:04;;;;;;;5.10;1.95;;;;;;;;;;4936243;29;20050;-88
2023/06/15 14:05:48;;;;;;;6.15;2.60;;;;;;;;;;4935069;29;20075;-88
2023/06/15 14:08:33;;;;;;;9.30;3.35;;;;;;;;;;4935998;29;20043;-89
2023/06/15 14:11:18;;;;;;;3.22;2.10;;;;;;;;;;4934715;29;20155;-89
2023/06/15 14:14:02;;;;;;;6.30;2.25;;;;;;;;;;4935948;29;20038;-88
2023/06/15 14:16:47;;;;;;;6.97;2.30;;;;;;;;;;4935856;29;20398;-89
2023/06/15 14:19:32;;;;;;;6.43;2.22;;;;;;;;;;4935558;29;20551;-89
2023/06/15 14:22:16;;;;;;;5.88;2.08;;;;;;;;;;4934384;29;20428;-89
2023/06/15 14:25:01;;;;;;;5.93;2.42;;;;;;;;;;4935960;29;20127;-89
2023/06/15 14:27:47;;;;;;;5.85;3.05;;;;;;;;;;4934962;29;20051;-89
2023/06/15 14:30:33;;;;;;;3.42;2.38;;;;;;;;;;4907771;29;20128;-88
2023/06/15 14:33:18;;;;;;;4.63;2.38;;;;;;;;;;4935384;29;20054;-89
2023/06/15 14:36:03;;;;;;;4.30;2.13;;;;;;;;;;4921302;29;20046;-91
2023/06/15 14:38:47;;;;;;;6.50;2.35;;;;;;;;;;4935555;29;20067;-89
2023/06/15 14:41:32;;;;;;;4.35;2.88;;;;;;;;;;4935257;29;20099;-89
2023/06/15 14:44:16;;;;;;;5.13;2.10;;;;;;;;;;4920357;29;20142;-89
2023/06/15 14:47:01;;;;;;;18.52;2.90;;;;;;;;;;4921188;29;20043;-89
2023/06/15 14:49:46;;;;;;;6.38;2.65;;;;;;;;;;4935597;29;20034;-89
2023/06/15 14:52:31;;;;;;;7.18;2.17;;;;;;;;;;4935483;29;20086;-90
2023/06/15 14:55:15;;;;;;;5.80;2.40;;;;;;;;;;4934154;29;20058;-88
2023/06/15 14:58:00;;;;;;;5.95;2.60;;;;;;;;;;4935595;29;20504;-89
2023/06/15 15:00:44;;;;;;;6.80;2.33;;;;;;;;;;4934414;29;20129;-90
2023/06/15 15:03:29;;;;;;;7.22;3.38;;;;;;;;;;4934889;29;20042;-90
2023/06/15 15:06:13;;;;;;;3.00;2.05;;;;;;;;;;4934877;29;20069;-90
2023/06/15 15:08:58;;;;;;;5.90;2.67;;;;;;;;;;4935341;29;20535;-89
2023/06/15 15:11:43;;;;;;;6.32;2.50;;;;;;;;;;4935168;29;20046;-91
2023/06/15 15:14:27;;;;;;;5.88;2.10;;;;;;;;;;4934818;29;20047;-88
2023/06/15 15:17:13;;;;;;;6.50;2.33;;;;;;;;;;4935147;29;20090;-89
2023/06/15 15:19:58;;;;;;;4.20;2.17;;;;;;;;;;4935117;29;20118;-88
2023/06/15 15:22:43;;;;;;;5.30;2.10;;;;;;;;;;4934158;29;20043;-90
2023/06/15 15:25:27;;;;;;;5.93;2.00;;;;;;;;;;4939828;29;20059;-89
2023/06/15 15:28:12;;;;;;;4.65;2.35;;;;;;;;;;4912904;29;20043;-89
2023/06/15 15:30:57;;;;;;;8.85;2.30;;;;;;;;;;4936622;29;20047;-88
2023/06/15 15:33:41;;;;;;;6.28;2.42;;;;;;;;;;4933811;29;20091;-89
2023/06/15 15:36:26;;;;;;;6.28;2.30;;;;;;;;;;4934655;29;20124;-89
2023/06/15 15:39:11;;;;;;;6.13;2.50;;;;;;;;;;4934920;29;20039;-89
2023/06/15 15:41:56;;;;;;;7.22;2.70;;;;;;;;;;4934088;29;20058;-88
2023/06/15 15:44:40;;;;;;;5.65;2.63;;;;;;;;;;4934373;29;20083;-89
2023/06/15 15:47:25;;;;;;;5.32;2.67;;;;;;;;;;4920123;29;20047;-89
2023/06/15 15:50:10;;;;;;;9.85;3.42;;;;;;;;;;4920477;29;20042;-88
2023/06/15 15:52:55;;;;;;;6.68;2.10;;;;;;;;;;4934881;29;20079;-90
2023/06/15 15:55:40;;;;;;;5.63;2.50;;;;;;;;;;4933634;29;20109;-89
2023/06/15 15:58:25;;;;;;;5.70;2.75;;;;;;;;;;4934461;29;20073;-91
2023/06/15 16:01:10;;;;;;;4.75;2.47;;;;;;;;;;4935123;29;20046;-90
2023/06/15 16:03:54;;;;;;;10.35;2.30;;;;;;;;;;4937458;29;20087;-89
2023/06/15 16:06:39;;;;;;;6.10;2.55;;;;;;;;;;4937208;29;20059;-88
2023/06/15 16:09:25;;;;;;;5.00;2.15;;;;;;;;;;4923650;29;20103;-89
2023/06/15 16:12:10;;;;;;;4.57;2.35;;;;;;;;;;4937344;29;20043;-89
2023/06/15 16:14:55;;;;;;;5.95;2.67;;;;;;;;;;4937466;29;20091;-90
2023/06/15 16:17:40;;;;;;;5.85;2.03;;;;;;;;;;4937937;29;20106;-91
2023/06/15 16:20:27;;;;;;;7.43;2.72;;;;;;;;;;4937799;29;20047;-88
2023/06/15 16:23:12;;;;;;;7.82;3.00;;;;;;;;;;4937959;29;20043;-89
2023/06/15 16:25:56;;;;;;;5.40;2.85;;;;;;;;;;4936975;29;20424;-88
2023/06/15 16:28:41;;;;;;;6.28;2.45;;;;;;;;;;4923320;29;20087;-89
2023/06/15 16:31:26;;;;;;;8.95;2.88;;;;;;;;;;4936616;29;20047;-88